sensor_id;sensor_type;location;lat;lon;timestamp;pressure;altitude;pressure_sealevel;temperature;humidity
34586;BME280;20816;50.950;11.108;2023-12-20T00:00:09;98103.66;;;4.50;100.00
34586;BME280;20816;50.950;11.108;2023-12-20T00:02:36;98115.81;;;4.47;100.00
34586;BME280;20816;50.950;11.108;2023-12-20T00:05:03;98094.09;;;4.53;100.00
34586;BME280;20816;50.950;11.108;2023-12-20T00:07:30;98098.41;;;4.58;100.00
34586;BME280;20816;50.950;11.108;2023-12-20T00:09:57;98094.94;;;4.59;100.00
34586;BME280;20816;50.950;11.108;2023-12-20T00:12:23;98087.16;;;4.58;100.00
34586;BME280;20816;50.950;11.108;2023-12-20T00:14:50;98089.72;;;4.59;100.00
34586;BME280;20816;50.950;11.108;2023-12-20T00:17:17;98084.56;;;4.56;100.00
34586;BME280;20816;50.950;11.108;2023-12-20T00:19:43;98082.84;;;4.52;100.00
34586;BME280;20816;50.950;11.108;2023-12-20T00:22:10;98077.63;;;4.52;100.00
34586;BME280;20816;50.950;11.108;2023-12-20T00:24:37;98086.25;;;4.60;100.00
34586;BME280;20816;50.950;11.108;2023-12-20T00:27:04;98081.97;;;4.52;100.00
34586;BME280;20816;50.950;11.108;2023-12-20T00:29:31;98081.09;;;4.51;100.00
34586;BME280;20816;50.950;11.108;2023-12-20T00:31:57;98072.38;;;4.61;100.00
34586;BME280;20816;50.950;11.108;2023-12-20T00:34:24;98079.34;;;4.56;100.00
34586;BME280;20816;50.950;11.108;2023-12-20T00:36:51;98081.00;;;4.63;100.00
34586;BME280;20816;50.950;11.108;2023-12-20T00:39:17;98086.25;;;4.62;100.00
34586;BME280;20816;50.950;11.108;2023-12-20T00:41:44;98094.03;;;4.62;100.00
34586;BME280;20816;50.950;11.108;2023-12-20T00:44:11;98089.75;;;4.58;100.00
34586;BME280;20816;50.950;11.108;2023-12-20T00:46:37;98092.38;;;4.53;100.00
34586;BME280;20816;50.950;11.108;2023-12-20T00:49:04;98086.28;;;4.54;100.00
34586;BME280;20816;50.950;11.108;2023-12-20T00:51:31;98082.81;;;4.55;100.00
34586;BME280;20816;50.950;11.108;2023-12-20T00:53:58;98081.09;;;4.51;100.00
34586;BME280;20816;50.950;11.108;2023-12-20T00:56:24;98081.94;;;4.55;100.00
34586;BME280;20816;50.950;11.108;2023-12-20T00:58:51;98078.47;;;4.54;100.00
34586;BME280;20816;50.950;11.108;2023-12-20T01:01:18;98087.16;;;4.58;100.00
34586;BME280;20816;50.950;11.108;2023-12-20T01:03:45;98081.06;;;4.60;100.00
34586;BME280;20816;50.950;11.108;2023-12-20T01:06:12;98072.44;;;4.50;100.00
34586;BME280;20816;50.950;11.108;2023-12-20T01:08:38;98069.81;;;4.52;100.00
34586;BME280;20816;50.950;11.108;2023-12-20T01:11:05;98081.09;;;4.57;100.00
34586;BME280;20816;50.950;11.108;2023-12-20T01:13:32;98073.28;;;4.53;100.00
34586;BME280;20816;50.950;11.108;2023-12-20T01:15:59;98061.16;;;4.50;100.00
34586;BME280;20816;50.950;11.108;2023-12-20T01:18:26;98065.44;;;4.60;100.00
34586;BME280;20816;50.950;11.108;2023-12-20T01:20:52;98062.94;;;4.48;100.00
34586;BME280;20816;50.950;11.108;2023-12-20T01:23:19;98061.13;;;4.55;100.00
34586;BME280;20816;50.950;11.108;2023-12-20T01:25:46;98070.66;;;4.54;100.00
34586;BME280;20816;50.950;11.108;2023-12-20T01:28:12;98072.47;;;4.49;100.00
34586;BME280;20816;50.950;11.108;2023-12-20T01:30:39;98070.72;;;4.46;100.00
34586;BME280;20816;50.950;11.108;2023-12-20T01:33:06;98068.97;;;4.50;100.00
34586;BME280;20816;50.950;11.108;2023-12-20T01:35:32;98058.53;;;4.56;100.00
34586;BME280;20816;50.950;11.108;2023-12-20T01:37:59;98062.06;;;4.49;100.00
34586;BME280;20816;50.950;11.108;2023-12-20T01:40:26;98059.41;;;4.52;100.00
34586;BME280;20816;50.950;11.108;2023-12-20T01:43:00;98049.00;;;4.52;100.00
34586;BME280;20816;50.950;11.108;2023-12-20T01:45:27;98061.16;;;4.47;100.00
34586;BME280;20816;50.950;11.108;2023-12-20T01:47:57;98051.56;;;4.55;100.00
34586;BME280;20816;50.950;11.108;2023-12-20T01:50:24;98058.53;;;4.53;100.00
34586;BME280;20816;50.950;11.108;2023-12-20T01:52:51;98061.16;;;4.50;100.00
34586;BME280;20816;50.950;11.108;2023-12-20T01:55:19;98061.16;;;4.52;100.00
34586;BME280;20816;50.950;11.108;2023-12-20T01:57:46;98054.22;;;4.47;100.00
34586;BME280;20816;50.950;11.108;2023-12-20T02:00:14;98055.97;;;4.47;100.00
34586;BME280;20816;50.950;11.108;2023-12-20T02:02:41;98039.50;;;4.48;100.00
34586;BME280;20816;50.950;11.108;2023-12-20T02:05:09;98046.47;;;4.43;100.00
34586;BME280;20816;50.950;11.108;2023-12-20T02:07:37;98058.56;;;4.47;100.00
34586;BME280;20816;50.950;11.108;2023-12-20T02:10:04;98049.84;;;4.54;100.00
34586;BME280;20816;50.950;11.108;2023-12-20T02:12:31;98049.09;;;4.41;100.00
34586;BME280;20816;50.950;11.108;2023-12-20T02:14:58;98042.91;;;4.53;100.00
34586;BME280;20816;50.950;11.108;2023-12-20T02:17:25;98042.97;;;4.47;100.00
34586;BME280;20816;50.950;11.108;2023-12-20T02:19:52;98049.06;;;4.43;100.00
34586;BME280;20816;50.950;11.108;2023-12-20T02:22:19;98039.56;;;4.36;100.00
34586;BME280;20816;50.950;11.108;2023-12-20T02:24:45;98042.97;;;4.47;100.00
34586;BME280;20816;50.950;11.108;2023-12-20T02:27:12;98043.03;;;4.38;100.00
34586;BME280;20816;50.950;11.108;2023-12-20T02:29:40;98036.97;;;4.40;100.00
34586;BME280;20816;50.950;11.108;2023-12-20T02:32:06;98039.53;;;4.39;100.00
34586;BME280;20816;50.950;11.108;2023-12-20T02:34:34;98029.13;;;4.39;100.00
34586;BME280;20816;50.950;11.108;2023-12-20T02:37:01;98032.63;;;4.41;100.00
34586;BME280;20816;50.950;11.108;2023-12-20T02:39:28;98023.09;;;4.35;100.00
34586;BME280;20816;50.950;11.108;2023-12-20T02:41:55;98012.72;;;4.32;100.00
34586;BME280;20816;50.950;11.108;2023-12-20T02:44:21;98016.13;;;4.40;100.00
34586;BME280;20816;50.950;11.108;2023-12-20T02:46:48;98018.75;;;4.37;100.00
34586;BME280;20816;50.950;11.108;2023-12-20T02:49:15;98017.00;;;4.38;100.00
34586;BME280;20816;50.950;11.108;2023-12-20T02:51:42;98015.28;;;4.40;100.00
34586;BME280;20816;50.950;11.108;2023-12-20T02:54:08;98011.81;;;4.41;100.00
34586;BME280;20816;50.950;11.108;2023-12-20T02:56:35;98005.69;;;4.43;100.00
34586;BME280;20816;50.950;11.108;2023-12-20T02:59:02;98003.13;;;4.39;100.00
34586;BME280;20816;50.950;11.108;2023-12-20T03:01:55;98003.13;;;4.42;100.00
34586;BME280;20816;50.950;11.108;2023-12-20T03:04:26;97993.63;;;4.33;100.00
34586;BME280;20816;50.950;11.108;2023-12-20T03:06:53;97999.75;;;4.28;100.00
34586;BME280;20816;50.950;11.108;2023-12-20T03:09:20;98017.00;;;4.41;100.00
34586;BME280;20816;50.950;11.108;2023-12-20T03:11:46;98011.00;;;4.28;100.00
34586;BME280;20816;50.950;11.108;2023-12-20T03:14:13;98018.75;;;4.36;100.00
34586;BME280;20816;50.950;11.108;2023-12-20T03:16:39;98009.22;;;4.35;100.00
34586;BME280;20816;50.950;11.108;2023-12-20T03:19:06;97998.78;;;4.41;100.00
34586;BME280;20816;50.950;11.108;2023-12-20T03:21:33;97990.09;;;4.39;100.00
34586;BME280;20816;50.950;11.108;2023-12-20T03:24:00;97986.59;;;4.44;100.00
34586;BME280;20816;50.950;11.108;2023-12-20T03:26:26;97990.06;;;4.46;100.00
34586;BME280;20816;50.950;11.108;2023-12-20T03:28:53;97990.06;;;4.45;100.00
34586;BME280;20816;50.950;11.108;2023-12-20T03:31:20;97992.72;;;4.40;100.00
34586;BME280;20816;50.950;11.108;2023-12-20T03:33:47;97990.06;;;4.46;100.00
34586;BME280;20816;50.950;11.108;2023-12-20T03:36:14;97991.78;;;4.46;100.00
34586;BME280;20816;50.950;11.108;2023-12-20T03:38:41;97995.28;;;4.43;100.00
34586;BME280;20816;50.950;11.108;2023-12-20T03:41:07;97989.22;;;4.43;100.00
34586;BME280;20816;50.950;11.108;2023-12-20T03:43:34;97994.47;;;4.37;100.00
34586;BME280;20816;50.950;11.108;2023-12-20T03:46:01;98003.13;;;4.40;100.00
34586;BME280;20816;50.950;11.108;2023-12-20T03:48:31;98003.13;;;4.42;100.00
34586;BME280;20816;50.950;11.108;2023-12-20T03:50:57;98017.00;;;4.38;100.00
34586;BME280;20816;50.950;11.108;2023-12-20T03:53:24;98025.69;;;4.40;100.00
34586;BME280;20816;50.950;11.108;2023-12-20T03:55:51;98036.91;;;4.45;100.00
34586;BME280;20816;50.950;11.108;2023-12-20T03:58:18;98041.31;;;4.40;100.00
34586;BME280;20816;50.950;11.108;2023-12-20T04:00:44;98029.09;;;4.45;100.00
34586;BME280;20816;50.950;11.108;2023-12-20T04:03:11;98027.31;;;4.53;100.00
34586;BME280;20816;50.950;11.108;2023-12-20T04:05:41;98034.31;;;4.45;100.00
34586;BME280;20816;50.950;11.108;2023-12-20T04:08:08;98041.22;;;4.46;100.00
34586;BME280;20816;50.950;11.108;2023-12-20T04:10:35;98038.63;;;4.50;100.00
34586;BME280;20816;50.950;11.108;2023-12-20T04:13:04;98031.66;;;4.51;100.00
34586;BME280;20816;50.950;11.108;2023-12-20T04:15:31;98039.38;;;4.63;100.00
34586;BME280;20816;50.950;11.108;2023-12-20T04:17:57;98032.50;;;4.56;100.00
34586;BME280;20816;50.950;11.108;2023-12-20T04:20:24;98037.72;;;4.53;100.00
34586;BME280;20816;50.950;11.108;2023-12-20T04:22:51;98041.22;;;4.46;100.00
34586;BME280;20816;50.950;11.108;2023-12-20T04:25:18;98046.41;;;4.52;100.00
34586;BME280;20816;50.950;11.108;2023-12-20T04:27:44;98055.94;;;4.52;100.00
34586;BME280;20816;50.950;11.108;2023-12-20T04:30:13;98060.25;;;4.54;100.00
34586;BME280;20816;50.950;11.108;2023-12-20T04:32:40;98043.78;;;4.54;100.00
34586;BME280;20816;50.950;11.108;2023-12-20T04:35:06;98046.38;;;4.55;100.00
34586;BME280;20816;50.950;11.108;2023-12-20T04:37:35;98050.69;;;4.61;100.00
34586;BME280;20816;50.950;11.108;2023-12-20T04:40:02;98053.38;;;4.50;100.00
34586;BME280;20816;50.950;11.108;2023-12-20T04:42:29;98060.31;;;4.45;100.00
34586;BME280;20816;50.950;11.108;2023-12-20T04:44:56;98060.28;;;4.51;100.00
34586;BME280;20816;50.950;11.108;2023-12-20T04:47:22;98067.25;;;4.49;100.00
34586;BME280;20816;50.950;11.108;2023-12-20T04:49:49;98066.34;;;4.52;100.00
34586;BME280;20816;50.950;11.108;2023-12-20T04:52:16;98058.53;;;4.56;100.00
34586;BME280;20816;50.950;11.108;2023-12-20T04:54:43;98058.47;;;4.62;100.00
34586;BME280;20816;50.950;11.108;2023-12-20T04:57:10;98060.22;;;4.60;100.00
34586;BME280;20816;50.950;11.108;2023-12-20T04:59:37;98052.50;;;4.51;100.00
34586;BME280;20816;50.950;11.108;2023-12-20T05:02:03;98055.09;;;4.51;100.00
34586;BME280;20816;50.950;11.108;2023-12-20T05:04:30;98055.09;;;4.49;100.00
34586;BME280;20816;50.950;11.108;2023-12-20T05:06:57;98063.84;;;4.41;100.00
34586;BME280;20816;50.950;11.108;2023-12-20T05:09:24;98062.94;;;4.45;100.00
34586;BME280;20816;50.950;11.108;2023-12-20T05:11:51;98061.97;;;4.55;100.00
34586;BME280;20816;50.950;11.108;2023-12-20T05:14:17;98059.38;;;4.58;100.00
34586;BME280;20816;50.950;11.108;2023-12-20T05:16:44;98052.44;;;4.57;100.00
34586;BME280;20816;50.950;11.108;2023-12-20T05:19:11;98058.53;;;4.58;100.00
34586;BME280;20816;50.950;11.108;2023-12-20T05:21:38;98061.91;;;4.67;100.00
34586;BME280;20816;50.950;11.108;2023-12-20T05:24:04;98054.91;;;4.75;100.00
34586;BME280;20816;50.950;11.108;2023-12-20T05:26:31;98057.66;;;4.59;100.00
34586;BME280;20816;50.950;11.108;2023-12-20T05:28:58;98060.19;;;4.66;100.00
34586;BME280;20816;50.950;11.108;2023-12-20T05:31:24;98048.88;;;4.70;100.00
34586;BME280;20816;50.950;11.108;2023-12-20T05:33:51;98058.41;;;4.71;100.00
34586;BME280;20816;50.950;11.108;2023-12-20T05:36:18;98063.56;;;4.81;100.00
34586;BME280;20816;50.950;11.108;2023-12-20T05:38:45;98072.22;;;4.83;100.00
34586;BME280;20816;50.950;11.108;2023-12-20T05:41:11;98077.41;;;4.86;100.00
34586;BME280;20816;50.950;11.108;2023-12-20T05:43:39;98080.00;;;4.84;100.00
34586;BME280;20816;50.950;11.108;2023-12-20T05:46:06;98078.31;;;4.77;100.00
34586;BME280;20816;50.950;11.108;2023-12-20T05:48:33;98065.25;;;4.86;100.00
34586;BME280;20816;50.950;11.108;2023-12-20T05:51:00;98082.63;;;4.79;100.00
34586;BME280;20816;50.950;11.108;2023-12-20T05:53:26;98084.47;;;4.68;100.00
34586;BME280;20816;50.950;11.108;2023-12-20T05:55:53;98081.84;;;4.73;100.00
34586;BME280;20816;50.950;11.108;2023-12-20T05:58:20;98082.69;;;4.72;100.00
34586;BME280;20816;50.950;11.108;2023-12-20T06:00:47;98077.47;;;4.76;100.00
34586;BME280;20816;50.950;11.108;2023-12-20T06:03:15;98081.81;;;4.74;100.00
34586;BME280;20816;50.950;11.108;2023-12-20T06:05:42;98081.84;;;4.70;100.00
34586;BME280;20816;50.950;11.108;2023-12-20T06:08:08;98087.81;;;4.89;100.00
34586;BME280;20816;50.950;11.108;2023-12-20T06:10:35;98089.56;;;4.84;100.00
34586;BME280;20816;50.950;11.108;2023-12-20T06:13:02;98090.41;;;4.86;100.00
34586;BME280;20816;50.950;11.108;2023-12-20T06:15:30;98096.50;;;4.85;100.00
34586;BME280;20816;50.950;11.108;2023-12-20T06:17:57;98092.97;;;4.92;100.00
34586;BME280;20816;50.950;11.108;2023-12-20T06:20:24;98099.06;;;4.91;100.00
34586;BME280;20816;50.950;11.108;2023-12-20T06:22:51;98106.88;;;4.88;100.00
34586;BME280;20816;50.950;11.108;2023-12-20T06:25:18;98095.50;;;5.01;100.00
34586;BME280;20816;50.950;11.108;2023-12-20T06:27:44;98108.63;;;4.86;100.00
34586;BME280;20816;50.950;11.108;2023-12-20T06:30:11;98113.84;;;4.86;100.00
34586;BME280;20816;50.950;11.108;2023-12-20T06:32:39;98103.41;;;4.87;100.00
34586;BME280;20816;50.950;11.108;2023-12-20T06:35:06;98111.34;;;4.73;100.00
34586;BME280;20816;50.950;11.108;2023-12-20T06:37:33;98110.53;;;4.62;100.00
34586;BME280;20816;50.950;11.108;2023-12-20T06:39:59;98115.72;;;4.62;100.00
34586;BME280;20816;50.950;11.108;2023-12-20T06:42:27;98125.34;;;4.53;100.00
34586;BME280;20816;50.950;11.108;2023-12-20T06:44:55;98111.47;;;4.52;100.00
34586;BME280;20816;50.950;11.108;2023-12-20T06:47:22;98121.00;;;4.47;100.00
34586;BME280;20816;50.950;11.108;2023-12-20T06:49:48;98118.41;;;4.47;100.00
34586;BME280;20816;50.950;11.108;2023-12-20T06:52:15;98110.66;;;4.41;100.00
34586;BME280;20816;50.950;11.108;2023-12-20T06:54:42;98095.91;;;4.41;100.00
34586;BME280;20816;50.950;11.108;2023-12-20T06:57:09;98096.75;;;4.45;100.00
34586;BME280;20816;50.950;11.108;2023-12-20T06:59:40;98104.56;;;4.43;100.00
34586;BME280;20816;50.950;11.108;2023-12-20T07:02:08;98088.13;;;4.37;100.00
34586;BME280;20816;50.950;11.108;2023-12-20T07:04:41;98095.13;;;4.26;100.00
34586;BME280;20816;50.950;11.108;2023-12-20T07:07:07;98105.53;;;4.22;100.00
34586;BME280;20816;50.950;11.108;2023-12-20T07:09:34;98109.88;;;4.22;100.00
34586;BME280;20816;50.950;11.108;2023-12-20T07:12:01;98109.91;;;4.16;100.00
34586;BME280;20816;50.950;11.108;2023-12-20T07:14:28;98117.75;;;4.08;100.00
34586;BME280;20816;50.950;11.108;2023-12-20T07:16:55;98126.44;;;4.03;100.00
34586;BME280;20816;50.950;11.108;2023-12-20T07:19:22;98122.91;;;4.17;100.00
34586;BME280;20816;50.950;11.108;2023-12-20T07:21:49;98119.44;;;4.14;100.00
34586;BME280;20816;50.950;11.108;2023-12-20T07:24:15;98126.44;;;4.03;100.00
34586;BME280;20816;50.950;11.108;2023-12-20T07:26:42;98120.38;;;3.98;100.00
34586;BME280;20816;50.950;11.108;2023-12-20T07:29:09;98125.56;;;3.98;100.00
34586;BME280;20816;50.950;11.108;2023-12-20T07:31:37;98127.28;;;3.99;100.00
34586;BME280;20816;50.950;11.108;2023-12-20T07:34:05;98125.59;;;3.94;100.00
34586;BME280;20816;50.950;11.108;2023-12-20T07:36:32;98122.06;;;4.06;100.00
34586;BME280;20816;50.950;11.108;2023-12-20T07:38:59;98124.66;;;4.06;100.00
34586;BME280;20816;50.950;11.108;2023-12-20T07:41:25;98124.69;;;4.03;100.00
34586;BME280;20816;50.950;11.108;2023-12-20T07:43:52;98119.50;;;4.00;100.00
34586;BME280;20816;50.950;11.108;2023-12-20T07:46:20;98133.28;;;4.24;100.00
34586;BME280;20816;50.950;11.108;2023-12-20T07:48:49;98131.56;;;4.19;100.00
34586;BME280;20816;50.950;11.108;2023-12-20T07:51:16;98133.31;;;4.14;100.00
34586;BME280;20816;50.950;11.108;2023-12-20T07:53:43;98135.09;;;4.03;100.00
34586;BME280;20816;50.950;11.108;2023-12-20T07:56:17;98138.53;;;4.05;100.00
34586;BME280;20816;50.950;11.108;2023-12-20T07:58:44;98129.88;;;4.09;100.00
34586;BME280;20816;50.950;11.108;2023-12-20T08:01:19;98132.50;;;4.08;100.00
34586;BME280;20816;50.950;11.108;2023-12-20T08:03:48;98137.59;;;4.28;100.00
34586;BME280;20816;50.950;11.108;2023-12-20T08:06:15;98147.97;;;4.34;100.00
34586;BME280;20816;50.950;11.108;2023-12-20T08:08:44;98139.22;;;4.47;100.00
34586;BME280;20816;50.950;11.108;2023-12-20T08:11:10;98150.53;;;4.43;100.00
34586;BME280;20816;50.950;11.108;2023-12-20T08:13:37;98150.53;;;4.49;100.00
34586;BME280;20816;50.950;11.108;2023-12-20T08:16:04;98149.63;;;4.52;100.00
34586;BME280;20816;50.950;11.108;2023-12-20T08:18:32;98149.63;;;4.56;100.00
34586;BME280;20816;50.950;11.108;2023-12-20T08:20:59;98155.69;;;4.54;100.00
34586;BME280;20816;50.950;11.108;2023-12-20T08:23:27;98155.59;;;4.70;100.00
34586;BME280;20816;50.950;11.108;2023-12-20T08:25:55;98154.78;;;4.61;100.00
34586;BME280;20816;50.950;11.108;2023-12-20T08:28:22;98151.31;;;4.60;100.00
34586;BME280;20816;50.950;11.108;2023-12-20T08:30:49;98143.53;;;4.56;100.00
34586;BME280;20816;50.950;11.108;2023-12-20T08:33:20;98142.63;;;4.61;100.00
34586;BME280;20816;50.950;11.108;2023-12-20T08:35:46;98140.91;;;4.60;100.00
34586;BME280;20816;50.950;11.108;2023-12-20T08:38:13;98146.97;;;4.62;100.00
34586;BME280;20816;50.950;11.108;2023-12-20T08:40:40;98138.34;;;4.57;100.00
34586;BME280;20816;50.950;11.108;2023-12-20T08:43:08;98134.91;;;4.49;100.00
34586;BME280;20816;50.950;11.108;2023-12-20T08:45:35;98130.56;;;4.46;100.00
34586;BME280;20816;50.950;11.108;2023-12-20T08:48:02;98123.63;;;4.47;100.00
34586;BME280;20816;50.950;11.108;2023-12-20T08:50:29;98131.41;;;4.47;100.00
34586;BME280;20816;50.950;11.108;2023-12-20T08:52:56;98138.31;;;4.60;100.00
34586;BME280;20816;50.950;11.108;2023-12-20T08:55:23;98144.41;;;4.56;100.00
34586;BME280;20816;50.950;11.108;2023-12-20T08:57:50;98146.00;;;4.77;100.00
34586;BME280;20816;50.950;11.108;2023-12-20T09:00:17;98147.63;;;4.98;100.00
34586;BME280;20816;50.950;11.108;2023-12-20T09:02:46;98150.13;;;5.10;100.00
34586;BME280;20816;50.950;11.108;2023-12-20T09:05:13;98159.56;;;5.26;100.00
34586;BME280;20816;50.950;11.108;2023-12-20T09:07:40;98156.91;;;5.32;100.00
34586;BME280;20816;50.950;11.108;2023-12-20T09:10:07;98155.88;;;5.50;100.00
34586;BME280;20816;50.950;11.108;2023-12-20T09:12:34;98167.00;;;5.72;100.00
34586;BME280;20816;50.950;11.108;2023-12-20T09:15:01;98168.47;;;6.01;100.00
34586;BME280;20816;50.950;11.108;2023-12-20T09:17:29;98156.97;;;6.20;100.00
34586;BME280;20816;50.950;11.108;2023-12-20T09:19:57;98154.38;;;6.17;100.00
34586;BME280;20816;50.950;11.108;2023-12-20T09:22:26;98150.00;;;6.21;100.00
34586;BME280;20816;50.950;11.108;2023-12-20T09:24:52;98146.75;;;5.99;100.00
34586;BME280;20816;50.950;11.108;2023-12-20T09:27:19;98149.47;;;5.83;100.00
34586;BME280;20816;50.950;11.108;2023-12-20T09:29:47;98147.84;;;5.73;100.00
34586;BME280;20816;50.950;11.108;2023-12-20T09:32:15;98144.41;;;5.70;100.00
34586;BME280;20816;50.950;11.108;2023-12-20T09:34:41;98149.66;;;5.67;100.00
34586;BME280;20816;50.950;11.108;2023-12-20T09:37:08;98138.97;;;5.93;100.00
34586;BME280;20816;50.950;11.108;2023-12-20T09:39:35;98139.00;;;5.91;100.00
34586;BME280;20816;50.950;11.108;2023-12-20T09:42:06;98139.06;;;5.83;100.00
34586;BME280;20816;50.950;11.108;2023-12-20T09:44:33;98142.34;;;6.04;100.00
34586;BME280;20816;50.950;11.108;2023-12-20T09:47:04;98144.69;;;6.25;99.54
34586;BME280;20816;50.950;11.108;2023-12-20T09:49:32;98142.84;;;6.33;98.57
34586;BME280;20816;50.950;11.108;2023-12-20T09:52:00;98131.31;;;6.53;97.56
34586;BME280;20816;50.950;11.108;2023-12-20T09:54:28;98127.63;;;6.69;96.25
34586;BME280;20816;50.950;11.108;2023-12-20T09:56:55;98135.25;;;6.83;95.30
34586;BME280;20816;50.950;11.108;2023-12-20T09:59:21;98133.00;;;6.57;95.82
34586;BME280;20816;50.950;11.108;2023-12-20T10:01:48;98142.84;;;6.33;96.85
34586;BME280;20816;50.950;11.108;2023-12-20T10:04:16;98148.34;;;6.10;98.39
34586;BME280;20816;50.950;11.108;2023-12-20T10:06:55;98136.19;;;6.11;99.37
34586;BME280;20816;50.950;11.108;2023-12-20T10:09:24;98127.53;;;6.07;99.52
34586;BME280;20816;50.950;11.108;2023-12-20T10:11:54;98131.00;;;6.08;99.97
34586;BME280;20816;50.950;11.108;2023-12-20T10:14:21;98124.97;;;6.03;100.00
34586;BME280;20816;50.950;11.108;2023-12-20T10:16:49;98112.72;;;6.08;100.00
34586;BME280;20816;50.950;11.108;2023-12-20T10:19:17;98104.19;;;5.97;99.35
34586;BME280;20816;50.950;11.108;2023-12-20T10:21:45;98099.16;;;5.78;100.00
34586;BME280;20816;50.950;11.108;2023-12-20T10:24:17;98104.19;;;5.94;100.00
34586;BME280;20816;50.950;11.108;2023-12-20T10:26:44;98091.78;;;6.14;100.00
34586;BME280;20816;50.950;11.108;2023-12-20T10:29:10;98086.38;;;6.29;98.80
34586;BME280;20816;50.950;11.108;2023-12-20T10:32:24;98079.47;;;6.25;98.72
34586;BME280;20816;50.950;11.108;2023-12-20T10:34:55;98079.56;;;6.19;98.77
34586;BME280;20816;50.950;11.108;2023-12-20T10:37:23;98084.06;;;6.06;99.11
34586;BME280;20816;50.950;11.108;2023-12-20T10:39:51;98085.75;;;6.12;98.95
34586;BME280;20816;50.950;11.108;2023-12-20T10:42:21;98081.41;;;6.09;99.25
34586;BME280;20816;50.950;11.108;2023-12-20T10:44:51;98080.50;;;6.13;99.85
34586;BME280;20816;50.950;11.108;2023-12-20T10:47:20;98082.25;;;6.13;98.74
34586;BME280;20816;50.950;11.108;2023-12-20T10:49:47;98074.44;;;6.10;98.97
34586;BME280;20816;50.950;11.108;2023-12-20T10:52:16;98074.50;;;6.07;99.56
34586;BME280;20816;50.950;11.108;2023-12-20T10:54:44;98076.06;;;6.20;98.90
34586;BME280;20816;50.950;11.108;2023-12-20T10:57:11;98066.41;;;6.28;98.51
34586;BME280;20816;50.950;11.108;2023-12-20T10:59:39;98063.72;;;6.31;97.21
34586;BME280;20816;50.950;11.108;2023-12-20T11:02:06;98067.44;;;6.15;96.98
34586;BME280;20816;50.950;11.108;2023-12-20T11:04:57;98071.03;;;6.05;97.80
34586;BME280;20816;50.950;11.108;2023-12-20T11:07:38;98066.03;;;5.86;99.17
34586;BME280;20816;50.950;11.108;2023-12-20T11:13:11;98074.69;;;5.88;100.00
34586;BME280;20816;50.950;11.108;2023-12-20T11:15:39;98053.81;;;5.88;100.00
34586;BME280;20816;50.950;11.108;2023-12-20T11:18:06;98071.97;;;5.99;100.00
34586;BME280;20816;50.950;11.108;2023-12-20T11:20:37;98056.38;;;5.96;100.00
34586;BME280;20816;50.950;11.108;2023-12-20T11:23:05;98055.38;;;6.05;98.99
34586;BME280;20816;50.950;11.108;2023-12-20T11:25:52;98047.59;;;6.00;98.81
34586;BME280;20816;50.950;11.108;2023-12-20T11:28:23;98031.03;;;6.06;99.21
34586;BME280;20816;50.950;11.108;2023-12-20T11:30:53;98030.31;;;5.93;98.37
34586;BME280;20816;50.950;11.108;2023-12-20T11:33:24;98013.03;;;5.83;98.51
34586;BME280;20816;50.950;11.108;2023-12-20T11:35:56;98016.56;;;5.77;99.79
34586;BME280;20816;50.950;11.108;2023-12-20T11:38:23;98036.56;;;5.75;99.45
34586;BME280;20816;50.950;11.108;2023-12-20T11:40:53;98033.03;;;5.82;99.54
34586;BME280;20816;50.950;11.108;2023-12-20T11:43:31;98017.31;;;5.85;99.54
34586;BME280;20816;50.950;11.108;2023-12-20T11:46:03;98020.72;;;5.94;98.32
34586;BME280;20816;50.950;11.108;2023-12-20T11:48:32;98028.59;;;5.90;99.43
34586;BME280;20816;50.950;11.108;2023-12-20T11:50:59;98025.91;;;5.98;98.91
34586;BME280;20816;50.950;11.108;2023-12-20T11:53:26;98022.38;;;6.01;99.67
34586;BME280;20816;50.950;11.108;2023-12-20T11:55:54;98018.91;;;6.00;99.48
34586;BME280;20816;50.950;11.108;2023-12-20T11:58:21;98013.56;;;6.11;99.63
34586;BME280;20816;50.950;11.108;2023-12-20T12:00:49;98020.50;;;6.12;99.28
34586;BME280;20816;50.950;11.108;2023-12-20T12:03:16;98030.84;;;6.18;98.64
34586;BME280;20816;50.950;11.108;2023-12-20T12:05:47;98014.22;;;6.25;98.76
34586;BME280;20816;50.950;11.108;2023-12-20T12:08:14;98019.50;;;6.22;98.57
34586;BME280;20816;50.950;11.108;2023-12-20T12:10:40;98013.47;;;6.17;99.02
34586;BME280;20816;50.950;11.108;2023-12-20T12:13:07;98015.09;;;6.27;98.15
34586;BME280;20816;50.950;11.108;2023-12-20T12:15:35;98012.59;;;6.16;98.62
34586;BME280;20816;50.950;11.108;2023-12-20T12:18:02;98009.28;;;6.07;99.49
34586;BME280;20816;50.950;11.108;2023-12-20T12:20:29;98007.38;;;6.20;99.03
34586;BME280;20816;50.950;11.108;2023-12-20T12:23:01;98007.38;;;6.16;98.74
34586;BME280;20816;50.950;11.108;2023-12-20T12:25:29;98007.44;;;6.13;99.14
34586;BME280;20816;50.950;11.108;2023-12-20T12:28:00;98004.00;;;6.10;99.72
34586;BME280;20816;50.950;11.108;2023-12-20T12:30:27;97993.47;;;6.16;100.00
34586;BME280;20816;50.950;11.108;2023-12-20T12:33:04;97998.72;;;6.14;99.45
34586;BME280;20816;50.950;11.108;2023-12-20T12:35:31;97997.81;;;6.17;99.48
34586;BME280;20816;50.950;11.108;2023-12-20T12:37:58;97977.06;;;6.11;99.08
34586;BME280;20816;50.950;11.108;2023-12-20T12:40:25;97981.34;;;6.13;99.58
34586;BME280;20816;50.950;11.108;2023-12-20T12:42:55;97977.00;;;6.14;99.90
34586;BME280;20816;50.950;11.108;2023-12-20T12:45:21;97967.28;;;6.24;99.48
34586;BME280;20816;50.950;11.108;2023-12-20T12:47:48;97948.31;;;6.14;99.65
34586;BME280;20816;50.950;11.108;2023-12-20T12:50:15;97944.09;;;6.04;99.66
34586;BME280;20816;50.950;11.108;2023-12-20T12:52:42;97940.47;;;6.14;100.00
34586;BME280;20816;50.950;11.108;2023-12-20T12:55:09;97944.81;;;6.15;99.77
34586;BME280;20816;50.950;11.108;2023-12-20T12:57:36;97924.88;;;6.11;99.47